createdAt,value
2023-04-06T00:02:01.259Z,16.30
2023-04-06T00:04:29.185Z,14.13
2023-04-06T00:06:57.672Z,14.70
2023-04-06T00:09:26.886Z,15.63
2023-04-06T00:11:54.721Z,16.03
2023-04-06T00:14:22.531Z,13.80
2023-04-06T00:16:50.391Z,13.67
2023-04-06T00:19:18.268Z,14.20
2023-04-06T00:21:46.024Z,15.33
2023-04-06T00:24:13.910Z,14.40
2023-04-06T00:26:43.134Z,16.60
2023-04-06T00:29:11.067Z,12.37
2023-04-06T00:31:38.979Z,14.83
2023-04-06T00:34:07.834Z,14.57
2023-04-06T00:36:35.607Z,14.07
2023-04-06T00:39:03.404Z,14.33
2023-04-06T00:41:31.240Z,13.73
2023-04-06T00:44:00.483Z,11.27
2023-04-06T00:46:28.355Z,12.70
2023-04-06T00:48:56.247Z,10.93
2023-04-06T00:51:24.902Z,14.57
2023-04-06T00:53:54.240Z,12.83
2023-04-06T00:56:22.312Z,14.23
2023-04-06T00:58:50.154Z,15.20
2023-04-06T01:01:19.364Z,15.00
2023-04-06T01:03:49.805Z,12.00
2023-04-06T01:06:17.796Z,12.30
2023-04-06T01:08:45.596Z,13.53
2023-04-06T01:11:13.404Z,12.73
2023-04-06T01:13:41.312Z,14.73
2023-04-06T01:16:10.837Z,14.73
2023-04-06T01:18:40.747Z,14.43
2023-04-06T01:21:09.735Z,15.97
2023-04-06T01:23:39.083Z,14.10
2023-04-06T01:26:06.882Z,12.67
2023-04-06T01:28:34.810Z,16.07
2023-04-06T01:31:02.581Z,15.80
2023-04-06T01:33:30.525Z,19.63
2023-04-06T01:35:58.329Z,15.37
2023-04-06T01:38:26.732Z,15.83
2023-04-06T01:40:56.117Z,16.63
2023-04-06T01:43:24.058Z,15.87
2023-04-06T01:45:52.038Z,15.67
2023-04-06T01:48:21.194Z,16.70
2023-04-06T01:50:49.016Z,18.57
2023-04-06T01:53:17.356Z,15.47
2023-04-06T01:55:45.309Z,17.17
2023-04-06T01:58:15.037Z,16.30
2023-04-06T02:00:42.950Z,14.07
2023-04-06T02:03:10.992Z,17.33
2023-04-06T02:05:39.775Z,15.83
2023-04-06T02:08:07.507Z,15.07
2023-04-06T02:10:36.178Z,21.13
2023-04-06T02:13:04.084Z,15.03
2023-04-06T02:15:33.336Z,17.80
2023-04-06T02:18:02.061Z,17.97
2023-04-06T02:20:29.826Z,16.13
2023-04-06T02:22:59.008Z,14.37
2023-04-06T02:25:27.428Z,17.00
2023-04-06T02:27:55.325Z,15.13
2023-04-06T02:30:23.073Z,17.93
2023-04-06T02:32:52.249Z,15.60
2023-04-06T02:35:20.206Z,16.43
2023-04-06T02:37:48.007Z,21.87
2023-04-06T02:40:16.507Z,14.73
2023-04-06T02:42:44.283Z,16.27
2023-04-06T02:45:12.235Z,16.13
2023-04-06T02:47:40.161Z,17.10
2023-04-06T02:50:10.209Z,16.80
2023-04-06T02:52:38.014Z,14.43
2023-04-06T02:55:08.547Z,15.70
2023-04-06T02:57:36.837Z,14.83
2023-04-06T03:00:05.513Z,17.07
2023-04-06T03:02:33.443Z,15.50
2023-04-06T03:05:01.259Z,17.03
2023-04-06T03:07:30.590Z,15.20
2023-04-06T03:09:58.376Z,19.53
2023-04-06T03:12:26.366Z,15.97
2023-04-06T03:14:54.080Z,15.40
2023-04-06T03:17:21.870Z,15.50
2023-04-06T03:19:49.619Z,18.53
2023-04-06T03:22:17.406Z,19.37
2023-04-06T03:24:46.475Z,17.57
2023-04-06T03:27:14.206Z,17.00
2023-04-06T03:29:42.037Z,19.13
2023-04-06T03:32:11.125Z,17.23
2023-04-06T03:34:40.430Z,20.60
2023-04-06T03:37:10.800Z,15.03
2023-04-06T03:39:38.868Z,15.80
2023-04-06T03:42:08.362Z,15.30
2023-04-06T03:44:36.114Z,16.90
2023-04-06T03:47:04.113Z,17.57
2023-04-06T03:49:31.890Z,19.23
2023-04-06T03:51:59.562Z,17.90
2023-04-06T03:54:27.361Z,17.90
2023-04-06T03:56:55.159Z,18.03
2023-04-06T03:59:24.423Z,18.60
2023-04-06T04:01:52.436Z,21.10
2023-04-06T04:04:20.369Z,18.90
2023-04-06T04:06:48.128Z,20.90
2023-04-06T04:09:15.857Z,19.93
2023-04-06T04:11:43.669Z,19.67
2023-04-06T04:14:11.497Z,18.30
2023-04-06T04:16:42.408Z,18.57
2023-04-06T04:19:10.854Z,22.03
2023-04-06T04:21:44.891Z,21.43
2023-04-06T04:24:12.887Z,20.80
2023-04-06T04:26:41.557Z,21.53
2023-04-06T04:29:09.941Z,24.23
2023-04-06T04:31:37.893Z,22.83
2023-04-06T04:34:07.961Z,24.63
2023-04-06T04:36:35.805Z,22.27
2023-04-06T04:39:03.740Z,23.80
2023-04-06T04:41:31.963Z,22.73
2023-04-06T04:43:59.876Z,27.23
2023-04-06T04:46:27.700Z,23.67
2023-04-06T04:48:55.579Z,25.33
2023-04-06T04:51:25.789Z,28.20
2023-04-06T04:53:53.563Z,23.93
2023-04-06T04:56:21.460Z,24.53
2023-04-06T04:58:49.273Z,25.17
2023-04-06T05:01:17.168Z,24.83
2023-04-06T05:03:45.122Z,22.47
2023-04-06T05:06:13.623Z,22.03
2023-04-06T05:08:43.071Z,26.97
2023-04-06T05:11:11.076Z,30.43
2023-04-06T05:13:38.868Z,27.00
2023-04-06T05:16:06.992Z,27.60
2023-04-06T05:18:35.106Z,29.90
2023-04-06T05:21:02.983Z,32.73
2023-04-06T05:23:30.845Z,28.80
2023-04-06T05:26:00.158Z,30.93
2023-04-06T05:28:27.977Z,33.80
2023-04-06T05:30:55.974Z,39.07
2023-04-06T05:33:23.881Z,33.57
2023-04-06T05:35:54.668Z,34.43
2023-04-06T05:38:22.443Z,32.80
2023-04-06T05:40:50.217Z,28.47
2023-04-06T05:43:21.142Z,30.27
2023-04-06T05:45:50.857Z,31.07
2023-04-06T05:48:18.705Z,29.07
2023-04-06T05:50:50.387Z,26.73
2023-04-06T05:53:18.378Z,29.73
2023-04-06T05:55:46.097Z,32.33
2023-04-06T05:58:14.119Z,27.47
2023-04-06T06:00:43.519Z,29.67
2023-04-06T06:03:11.960Z,27.20
2023-04-06T06:05:39.802Z,26.77
2023-04-06T06:08:07.748Z,26.17
2023-04-06T06:10:35.643Z,29.93
2023-04-06T06:13:03.568Z,28.17
2023-04-06T06:15:31.274Z,25.10
2023-04-06T06:18:00.500Z,29.37
2023-04-06T06:20:28.387Z,29.30
2023-04-06T06:22:56.939Z,27.23
2023-04-06T06:25:25.430Z,30.57
2023-04-06T06:27:53.537Z,27.10
2023-04-06T06:30:23.330Z,28.00
2023-04-06T06:32:52.385Z,32.27
2023-04-06T06:35:21.739Z,31.97
2023-04-06T06:37:49.566Z,31.60
2023-04-06T06:40:18.845Z,29.37
2023-04-06T06:42:46.878Z,27.93
2023-04-06T06:45:14.720Z,27.23
2023-04-06T06:47:42.795Z,32.40
2023-04-06T06:50:10.968Z,27.97
2023-04-06T06:52:40.733Z,26.33
2023-04-06T06:55:10.159Z,25.57
2023-04-06T06:57:37.904Z,28.37
2023-04-06T07:00:07.092Z,24.70
2023-04-06T07:02:36.702Z,22.47
2023-04-06T07:05:16.131Z,21.27
2023-04-06T07:07:54.449Z,23.00
2023-04-06T07:10:22.324Z,20.63
2023-04-06T07:12:50.695Z,19.37
2023-04-06T07:15:18.750Z,17.20
2023-04-06T07:17:47.104Z,23.50
2023-04-06T07:20:15.519Z,18.93
2023-04-06T07:22:45.492Z,18.60
2023-04-06T07:25:15.058Z,20.20
2023-04-06T07:27:43.220Z,17.77
2023-04-06T07:30:11.561Z,20.53
2023-04-06T07:32:39.425Z,20.03
2023-04-06T07:35:07.588Z,22.30
2023-04-06T07:37:35.468Z,20.73
2023-04-06T07:40:03.416Z,18.30
2023-04-06T07:42:34.249Z,19.40
2023-04-06T07:45:02.214Z,22.37
2023-04-06T07:47:30.026Z,18.60
2023-04-06T07:49:58.053Z,20.93
2023-04-06T07:52:26.049Z,19.90
2023-04-06T07:54:53.922Z,18.80
2023-04-06T07:57:21.725Z,20.30
2023-04-06T07:59:50.969Z,20.60
2023-04-06T08:02:18.972Z,19.43
2023-04-06T08:04:46.904Z,18.93
2023-04-06T08:07:14.777Z,20.23
2023-04-06T08:09:42.645Z,19.40
2023-04-06T08:12:10.536Z,19.00
2023-04-06T08:14:38.317Z,16.47
2023-04-06T08:17:07.556Z,14.77
2023-04-06T08:19:35.369Z,18.50
2023-04-06T08:22:03.474Z,15.37
2023-04-06T08:24:33.353Z,18.17
2023-04-06T08:27:01.542Z,16.40
2023-04-06T08:29:29.383Z,12.63
2023-04-06T08:31:57.404Z,13.83
2023-04-06T08:34:26.701Z,12.37
2023-04-06T08:36:54.438Z,9.80
2023-04-06T08:39:26.409Z,9.60
2023-04-06T08:41:58.068Z,10.57
2023-04-06T08:44:26.472Z,8.47
2023-04-06T08:46:54.975Z,7.37
2023-04-06T08:49:24.272Z,5.97
2023-04-06T08:51:54.078Z,5.50
2023-04-06T08:54:21.888Z,6.53
2023-04-06T08:56:50.527Z,7.90
2023-04-06T08:59:18.791Z,7.53
2023-04-06T09:01:47.896Z,6.37
2023-04-06T09:04:16.196Z,7.07
2023-04-06T09:06:45.258Z,7.53
2023-04-06T09:09:14.476Z,6.77
2023-04-06T09:11:47.772Z,6.23
2023-04-06T09:14:19.320Z,9.47
2023-04-06T09:16:48.504Z,7.07
2023-04-06T09:19:16.310Z,8.17
2023-04-06T09:21:44.007Z,9.37
2023-04-06T09:24:11.919Z,7.93
2023-04-06T09:26:50.292Z,6.83
2023-04-06T09:29:27.071Z,9.10
2023-04-06T09:32:03.691Z,9.20
2023-04-06T09:34:31.612Z,11.43
2023-04-06T09:36:59.529Z,8.60
2023-04-06T09:39:27.594Z,9.33
2023-04-06T09:41:56.832Z,10.50
2023-04-06T09:44:25.793Z,7.70
2023-04-06T09:47:00.945Z,7.60
2023-04-06T09:49:30.228Z,8.43
2023-04-06T09:52:01.532Z,8.53
2023-04-06T09:54:31.583Z,9.97
2023-04-06T09:57:08.124Z,6.47
2023-04-06T09:59:43.382Z,8.07
2023-04-06T10:02:20.399Z,8.53
2023-04-06T10:04:56.068Z,8.90
2023-04-06T10:07:24.466Z,6.77
2023-04-06T10:09:53.202Z,7.10
2023-04-06T10:12:22.798Z,5.00
2023-04-06T10:14:51.166Z,6.70
2023-04-06T10:17:18.934Z,5.97
2023-04-06T10:19:59.447Z,6.53
2023-04-06T10:22:34.391Z,7.97
2023-04-06T10:25:02.204Z,6.97
2023-04-06T10:27:32.689Z,5.80
2023-04-06T10:30:04.993Z,7.30
2023-04-06T10:32:40.039Z,5.20
2023-04-06T10:35:12.474Z,5.53
2023-04-06T10:37:52.435Z,5.80
2023-04-06T10:40:21.606Z,6.07
2023-04-06T10:42:50.756Z,7.03
2023-04-06T10:45:22.660Z,6.23
2023-04-06T10:47:50.564Z,8.27
2023-04-06T10:50:19.033Z,7.67
2023-04-06T10:52:47.905Z,5.53
2023-04-06T10:55:16.742Z,6.37
2023-04-06T10:57:44.658Z,6.70
2023-04-06T11:00:15.109Z,5.60
2023-04-06T11:02:42.884Z,6.23
2023-04-06T11:05:14.298Z,5.70
2023-04-06T11:07:42.842Z,7.10
2023-04-06T11:10:17.590Z,7.37
2023-04-06T11:12:47.197Z,7.37
2023-04-06T11:15:16.631Z,7.23
2023-04-06T11:17:46.028Z,6.37
2023-04-06T11:20:14.417Z,5.93
2023-04-06T11:22:51.169Z,8.63
2023-04-06T11:25:19.273Z,8.70
2023-04-06T11:27:47.632Z,6.00
2023-04-06T11:30:17.368Z,6.77
2023-04-06T11:32:47.082Z,7.53
2023-04-06T11:35:21.904Z,8.20
2023-04-06T11:37:50.882Z,6.90
2023-04-06T11:40:23.646Z,8.07
2023-04-06T11:42:54.897Z,6.90
2023-04-06T11:45:24.640Z,7.50
2023-04-06T11:47:59.246Z,7.27
2023-04-06T11:50:27.329Z,7.93
2023-04-06T11:53:02.264Z,7.60
2023-04-06T11:55:32.289Z,8.07
2023-04-06T11:58:01.643Z,8.83
2023-04-06T12:00:35.401Z,8.40
2023-04-06T12:03:03.388Z,6.90
2023-04-06T12:05:31.389Z,6.67
2023-04-06T12:08:01.157Z,7.17
2023-04-06T12:10:31.226Z,6.93
2023-04-06T12:12:58.995Z,7.27
2023-04-06T12:15:26.857Z,8.40
2023-04-06T12:17:56.077Z,8.83
2023-04-06T12:20:27.190Z,64.20
2023-04-06T12:22:55.822Z,8.67
2023-04-06T12:25:23.649Z,9.33
2023-04-06T12:27:51.533Z,5.90
2023-04-06T12:30:19.597Z,6.63
2023-04-06T12:32:48.958Z,6.03
2023-04-06T12:35:20.456Z,5.60
2023-04-06T12:37:48.334Z,5.13
2023-04-06T12:40:16.335Z,5.00
2023-04-06T12:42:44.102Z,6.73
2023-04-06T12:45:12.751Z,4.23
2023-04-06T12:47:40.593Z,3.97
2023-04-06T12:50:09.203Z,5.40
2023-04-06T12:52:38.323Z,4.63
2023-04-06T12:55:07.116Z,4.13
2023-04-06T12:57:34.997Z,5.20
2023-04-06T13:00:03.506Z,5.23
2023-04-06T13:02:32.879Z,3.70
2023-04-06T13:05:00.714Z,5.00
2023-04-06T13:07:28.812Z,5.03
2023-04-06T13:09:58.206Z,4.33
2023-04-06T13:12:27.243Z,6.00
2023-04-06T13:14:55.003Z,4.37
2023-04-06T13:17:23.655Z,4.67
2023-04-06T13:19:51.479Z,4.17
2023-04-06T13:22:19.276Z,4.77
2023-04-06T13:24:47.381Z,4.93
2023-04-06T13:27:16.573Z,5.83
2023-04-06T13:29:44.412Z,5.30
2023-04-06T13:32:12.353Z,4.27
2023-04-06T13:34:41.429Z,4.97
2023-04-06T13:37:09.221Z,4.50
2023-04-06T13:39:37.344Z,6.33
2023-04-06T13:42:05.420Z,5.47
2023-04-06T13:44:34.852Z,4.57
2023-04-06T13:47:02.890Z,5.33
2023-04-06T13:49:31.283Z,5.40
2023-04-06T13:51:59.153Z,4.53
2023-04-06T13:54:29.043Z,4.77
2023-04-06T13:56:57.729Z,4.43
2023-04-06T13:59:25.738Z,5.30
2023-04-06T14:01:54.995Z,7.03
2023-04-06T14:04:22.899Z,5.27
2023-04-06T14:06:50.717Z,4.80
2023-04-06T14:09:18.586Z,6.97
2023-04-06T14:11:46.772Z,5.87
2023-04-06T14:14:15.641Z,5.00
2023-04-06T14:16:45.144Z,6.70
2023-04-06T14:19:15.332Z,5.80
2023-04-06T14:21:44.703Z,6.30
2023-04-06T14:24:13.541Z,5.07
2023-04-06T14:26:42.428Z,5.83
2023-04-06T14:29:10.674Z,5.37
2023-04-06T14:31:38.992Z,4.77
2023-04-06T14:34:06.995Z,6.10
2023-04-06T14:36:39.204Z,4.47
2023-04-06T14:39:08.550Z,4.03
2023-04-06T14:41:36.923Z,4.00
2023-04-06T14:44:05.907Z,4.07
2023-04-06T14:46:34.315Z,5.20
2023-04-06T14:49:02.134Z,4.73
2023-04-06T14:51:29.926Z,5.07
2023-04-06T14:53:59.125Z,3.67
2023-04-06T14:56:26.990Z,3.23
2023-04-06T14:58:54.843Z,4.67
2023-04-06T15:01:22.661Z,4.30
2023-04-06T15:03:50.836Z,3.70
2023-04-06T15:06:21.509Z,3.67
2023-04-06T15:08:50.085Z,4.87
2023-04-06T15:11:19.531Z,5.17
2023-04-06T15:13:47.654Z,4.37
2023-04-06T15:16:16.350Z,4.33
2023-04-06T15:18:44.969Z,4.60
2023-04-06T15:21:12.860Z,5.20
2023-04-06T15:23:40.629Z,4.50
2023-04-06T15:26:08.435Z,4.87
2023-04-06T15:28:37.717Z,4.93
2023-04-06T15:31:07.163Z,5.37
2023-04-06T15:33:35.157Z,6.23
2023-04-06T15:36:08.012Z,6.33
2023-04-06T15:38:35.864Z,4.03
2023-04-06T15:41:05.299Z,6.23
2023-04-06T15:43:33.018Z,4.13
2023-04-06T15:46:03.316Z,6.10
2023-04-06T15:48:32.750Z,4.67
2023-04-06T15:51:00.561Z,5.13
2023-04-06T15:53:28.953Z,5.53
2023-04-06T15:56:00.227Z,5.73
2023-04-06T15:58:27.940Z,5.97
2023-04-06T16:00:55.802Z,7.67
2023-04-06T16:03:25.474Z,7.07
2023-04-06T16:08:27.036Z,7.57
2023-04-06T16:10:54.842Z,10.80
2023-04-06T16:13:22.866Z,9.03
2023-04-06T16:15:51.395Z,7.00
2023-04-06T16:18:19.383Z,9.00
2023-04-06T16:20:48.630Z,7.77
2023-04-06T16:23:16.583Z,6.07
2023-04-06T16:25:44.634Z,12.13
2023-04-06T16:28:12.453Z,8.20
2023-04-06T16:30:42.530Z,8.73
2023-04-06T16:33:12.917Z,8.97
2023-04-06T16:35:45.461Z,8.70
2023-04-06T16:38:14.976Z,7.90
2023-04-06T16:40:43.115Z,9.50
2023-04-06T16:43:11.258Z,9.40
2023-04-06T16:45:39.404Z,10.67
2023-04-06T16:48:08.877Z,10.93
2023-04-06T16:50:37.471Z,10.13
2023-04-06T16:53:05.365Z,12.17
2023-04-06T16:55:34.516Z,11.83
2023-04-06T16:58:02.329Z,13.43
2023-04-06T17:00:30.235Z,10.10
2023-04-06T17:02:58.206Z,14.37
2023-04-06T17:05:27.501Z,13.23
2023-04-06T17:07:55.291Z,8.77
2023-04-06T17:10:33.187Z,10.33
2023-04-06T17:13:07.258Z,11.27
2023-04-06T17:15:35.169Z,11.47
2023-04-06T17:18:03.401Z,12.47
2023-04-06T17:20:31.321Z,9.67
2023-04-06T17:22:59.023Z,9.13
2023-04-06T17:25:26.781Z,8.17
2023-04-06T17:27:54.785Z,7.90
2023-04-06T17:30:23.925Z,8.83
2023-04-06T17:32:51.734Z,7.50
2023-04-06T17:35:19.508Z,7.60
2023-04-06T17:37:48.060Z,6.67
2023-04-06T17:40:16.137Z,7.57
2023-04-06T17:42:43.972Z,4.67
2023-04-06T17:45:12.009Z,5.10
2023-04-06T17:47:41.277Z,3.73
2023-04-06T17:50:09.370Z,3.70
2023-04-06T17:52:37.408Z,3.07
2023-04-06T17:55:05.938Z,4.80
2023-04-06T17:57:33.701Z,3.87
2023-04-06T18:00:01.498Z,3.87
2023-04-06T18:02:29.537Z,5.80
2023-04-06T18:04:58.799Z,3.27
2023-04-06T18:07:26.608Z,7.80
2023-04-06T18:09:54.433Z,4.40
2023-04-06T18:12:22.499Z,5.80
2023-04-06T18:14:50.911Z,4.33
2023-04-06T18:17:18.691Z,4.63
2023-04-06T18:19:46.576Z,5.23
2023-04-06T18:22:16.399Z,8.87
2023-04-06T18:24:44.543Z,5.43
2023-04-06T18:27:13.564Z,5.43
2023-04-06T18:29:43.708Z,5.23
2023-04-06T18:32:11.492Z,4.77
2023-04-06T18:34:39.490Z,6.63
2023-04-06T18:37:07.336Z,5.50
2023-04-06T18:39:36.646Z,6.53
2023-04-06T18:42:04.608Z,3.33
2023-04-06T18:44:32.600Z,7.30
2023-04-06T18:47:00.610Z,4.37
2023-04-06T18:49:31.990Z,5.77
2023-04-06T18:52:00.036Z,4.10
2023-04-06T18:54:27.821Z,3.13
2023-04-06T18:56:56.984Z,3.63
2023-04-06T18:59:26.676Z,3.80
2023-04-06T19:01:54.829Z,4.37
2023-04-06T19:04:22.895Z,2.87
2023-04-06T19:06:50.920Z,4.27
2023-04-06T19:09:18.779Z,4.30
2023-04-06T19:11:46.648Z,5.83
2023-04-06T19:14:16.218Z,3.20
2023-04-06T19:16:51.976Z,5.07
2023-04-06T19:19:21.177Z,4.20
2023-04-06T19:21:49.366Z,4.10
2023-04-06T19:24:17.896Z,4.70
2023-04-06T19:26:46.119Z,4.83
2023-04-06T19:29:15.446Z,5.30
2023-04-06T19:31:43.308Z,2.40
2023-04-06T19:34:11.296Z,3.53
2023-04-06T19:36:39.024Z,4.20
2023-04-06T19:39:06.957Z,2.57
2023-04-06T19:41:34.678Z,6.23
2023-04-06T19:44:02.517Z,3.13
2023-04-06T19:46:31.801Z,6.83
2023-04-06T19:49:00.926Z,3.23
2023-04-06T19:51:32.585Z,5.50
2023-04-06T19:54:00.580Z,3.47
2023-04-06T19:56:28.653Z,3.87
2023-04-06T19:58:56.498Z,2.63
2023-04-06T20:01:24.373Z,2.87
2023-04-06T20:03:53.617Z,3.27
2023-04-06T20:06:21.473Z,3.93
2023-04-06T20:08:49.241Z,2.83
2023-04-06T20:11:18.005Z,5.13
2023-04-06T20:13:45.969Z,1.93
2023-04-06T20:16:13.757Z,3.97
2023-04-06T20:18:48.510Z,2.10
2023-04-06T20:21:17.716Z,6.53
2023-04-06T20:23:45.628Z,3.27
2023-04-06T20:26:13.359Z,5.33
2023-04-06T20:28:43.413Z,1.73
2023-04-06T20:31:12.226Z,3.77
2023-04-06T20:33:41.076Z,2.73
2023-04-06T20:36:09.783Z,4.20
2023-04-06T20:38:39.157Z,2.47
2023-04-06T20:41:09.092Z,2.77
2023-04-06T20:43:37.048Z,5.33
2023-04-06T20:46:05.522Z,2.77
2023-04-06T20:48:36.123Z,4.93
2023-04-06T20:51:04.153Z,3.53
2023-04-06T20:53:32.465Z,4.57
2023-04-06T20:56:02.391Z,3.67
2023-04-06T20:58:30.247Z,1.93
2023-04-06T21:00:57.987Z,3.53
2023-04-06T21:03:26.017Z,3.57
2023-04-06T21:05:55.609Z,4.60
2023-04-06T21:08:23.438Z,4.93
2023-04-06T21:10:51.266Z,3.23
2023-04-06T21:13:20.393Z,3.20
2023-04-06T21:15:48.199Z,2.67
2023-04-06T21:18:16.096Z,3.50
2023-04-06T21:20:44.543Z,4.67
2023-04-06T21:23:12.595Z,1.13
2023-04-06T21:25:40.437Z,5.03
2023-04-06T21:28:08.290Z,3.37
2023-04-06T21:30:38.087Z,3.43
2023-04-06T21:33:06.108Z,5.27
2023-04-06T21:35:34.299Z,2.97
2023-04-06T21:38:02.177Z,2.07
2023-04-06T21:40:29.924Z,1.80
2023-04-06T21:42:57.793Z,2.83
2023-04-06T21:45:25.709Z,3.90
2023-04-06T21:47:55.197Z,4.07
2023-04-06T21:50:23.064Z,3.43
2023-04-06T21:52:50.921Z,6.43
2023-04-06T21:55:18.921Z,4.37
2023-04-06T21:57:46.680Z,5.27
2023-04-06T22:00:15.609Z,5.07
2023-04-06T22:02:44.378Z,6.10
2023-04-06T22:05:13.978Z,7.73
2023-04-06T22:07:41.818Z,5.00
2023-04-06T22:10:10.027Z,5.97
2023-04-06T22:12:38.003Z,4.40
2023-04-06T22:15:06.672Z,6.07
2023-04-06T22:17:34.483Z,7.07
2023-04-06T22:20:02.297Z,5.07
2023-04-06T22:22:31.445Z,5.10
2023-04-06T22:25:01.105Z,5.87
2023-04-06T22:27:28.965Z,4.70
2023-04-06T22:29:57.195Z,7.90
2023-04-06T22:32:25.103Z,4.00
2023-04-06T22:34:52.869Z,10.10
2023-04-06T22:37:20.683Z,5.53
2023-04-06T22:39:49.988Z,5.87
2023-04-06T22:42:18.007Z,8.60
2023-04-06T22:44:45.843Z,8.00
2023-04-06T22:47:14.324Z,4.27
2023-04-06T22:49:42.134Z,6.30
2023-04-06T22:52:10.036Z,3.70
2023-04-06T22:54:37.979Z,8.17
2023-04-06T22:57:07.267Z,7.10
2023-04-06T22:59:35.021Z,6.17
2023-04-06T23:02:03.013Z,9.33
2023-04-06T23:04:31.792Z,7.33
2023-04-06T23:06:59.641Z,5.33
2023-04-06T23:09:27.410Z,8.53
2023-04-06T23:11:56.277Z,7.83
2023-04-06T23:14:25.589Z,7.87
2023-04-06T23:16:53.464Z,10.37
2023-04-06T23:19:21.554Z,6.53
2023-04-06T23:21:49.394Z,8.80
2023-04-06T23:24:17.296Z,8.77
2023-04-06T23:26:45.022Z,5.10
2023-04-06T23:29:12.791Z,11.07
2023-04-06T23:31:41.923Z,9.70
2023-04-06T23:34:09.651Z,6.27
2023-04-06T23:36:37.390Z,7.73
2023-04-06T23:39:05.442Z,6.97
2023-04-06T23:41:33.228Z,4.90
2023-04-06T23:44:01.011Z,7.50
2023-04-06T23:46:28.768Z,6.77
2023-04-06T23:48:57.862Z,6.67
2023-04-06T23:51:26.020Z,6.10
2023-04-06T23:53:53.786Z,7.00
2023-04-06T23:56:21.699Z,9.23
2023-04-06T23:58:49.421Z,6.03
